Time;durP1;ratioP1;P1;durP2;ratioP2;P2;SDS_P1;SDS_P2;PMS_P1;PMS_P2;Temp;Humidity;BMP_temperature;BMP_pressure;BME280_temperature;BME280_humidity;BME280_pressure;Samples;Min_cycle;Max_cycle;Signal;HPM_P1;HPM_P2
2023/02/19 00:01:00;;;;;;;75.75;23.17;;;;;;;-14.59;62.70;99133.38;5057712;28;20051;-74
2023/02/19 00:03:26;;;;;;;82.32;24.58;;;;;;;-14.55;62.42;99120.66;5075494;28;20051;-74
2023/02/19 00:05:52;;;;;;;66.03;20.80;;;;;;;-14.51;63.00;99127.56;5075026;28;20431;-76
2023/02/19 00:08:18;;;;;;;75.03;22.15;;;;;;;-14.46;63.02;99118.19;5057218;28;20058;-74
2023/02/19 00:10:44;;;;;;;69.93;20.65;;;;;;;-14.33;63.20;99120.94;5075380;28;20036;-75
2023/02/19 00:13:10;;;;;;;57.28;16.13;;;;;;;-14.26;62.64;99117.63;5040498;28;20045;-74
2023/02/19 00:15:36;;;;;;;31.85;13.05;;;;;;;-14.24;62.63;99115.94;5074902;28;20044;-74
2023/02/19 00:18:01;;;;;;;43.42;15.70;;;;;;;-14.28;62.54;99115.03;5057319;28;20052;-74
2023/02/19 00:20:27;;;;;;;49.47;15.40;;;;;;;-14.27;62.23;99108.19;5056900;28;20052;-74
2023/02/19 00:22:53;;;;;;;56.55;15.55;;;;;;;-14.28;62.49;99103.91;5056912;28;20040;-74
2023/02/19 00:25:19;;;;;;;31.92;13.38;;;;;;;-14.28;62.04;99104.78;5023359;28;20082;-74
2023/02/19 00:27:44;;;;;;;49.75;15.27;;;;;;;-14.33;62.10;99106.38;5023652;28;20040;-76
2023/02/19 00:30:10;;;;;;;39.85;12.98;;;;;;;-14.48;62.12;99108.72;5023699;28;20394;-74
2023/02/19 00:32:36;;;;;;;33.22;13.00;;;;;;;-14.48;61.84;99111.28;5040434;28;20517;-74
2023/02/19 00:35:02;;;;;;;36.05;13.77;;;;;;;-14.49;62.13;99101.91;5040222;28;20052;-74
2023/02/19 00:37:28;;;;;;;31.08;10.93;;;;;;;-14.61;62.30;99099.16;5039896;28;20040;-75
2023/02/19 00:39:54;;;;;;;35.78;13.63;;;;;;;-14.67;61.94;99107.59;5040279;28;20040;-75
2023/02/19 00:42:20;;;;;;;32.47;13.43;;;;;;;-14.75;62.54;99104.03;5039891;28;20040;-76
2023/02/19 00:44:46;;;;;;;36.00;13.65;;;;;;;-14.70;62.42;99107.56;5056308;28;20052;-75
2023/02/19 00:47:11;;;;;;;33.65;14.02;;;;;;;-14.68;62.73;99102.44;5039955;28;20051;-75
2023/02/19 00:49:38;;;;;;;33.40;12.65;;;;;;;-14.70;62.17;99094.75;5056376;28;20055;-74
2023/02/19 00:52:04;;;;;;;43.95;13.63;;;;;;;-14.68;62.00;99103.31;5056206;28;20036;-76
2023/02/19 00:54:30;;;;;;;35.60;13.60;;;;;;;-14.68;62.19;99095.59;5056355;28;20036;-76
2023/02/19 00:56:57;;;;;;;33.10;12.20;;;;;;;-14.69;62.03;99096.47;5040125;28;20467;-74
2023/02/19 00:59:23;;;;;;;38.92;14.38;;;;;;;-14.71;62.15;99100.69;5056141;28;20127;-74
2023/02/19 01:01:50;;;;;;;45.65;15.25;;;;;;;-14.71;62.17;99103.25;5055909;28;20393;-75
2023/02/19 01:04:16;;;;;;;49.90;16.83;;;;;;;-14.81;61.79;99091.13;5023020;28;20063;-75
2023/02/19 01:06:42;;;;;;;63.38;20.77;;;;;;;-14.97;62.23;99080.63;5039085;28;20036;-74
2023/02/19 01:09:08;;;;;;;58.28;18.65;;;;;;;-14.92;62.21;99087.53;5055183;28;20150;-74
2023/02/19 01:11:34;;;;;;;50.45;16.20;;;;;;;-14.94;62.34;99085.78;5039216;28;20040;-76
2023/02/19 01:14:00;;;;;;;45.13;15.77;;;;;;;-14.91;62.75;99095.22;5055785;28;20041;-75
2023/02/19 01:16:27;;;;;;;39.33;15.02;;;;;;;-14.92;62.53;99103.78;5039361;28;20088;-74
2023/02/19 01:18:53;;;;;;;62.53;14.63;;;;;;;-15.00;62.11;99097.66;5073675;28;20125;-75
2023/02/19 01:21:24;;;;;;;27.30;12.15;;;;;;;-15.03;62.46;99095.03;5055706;28;20056;-75
2023/02/19 01:23:52;;;;;;;27.75;12.52;;;;;;;-15.04;62.69;99093.28;5038370;28;20066;-75
2023/02/19 01:26:24;;;;;;;35.72;13.07;;;;;;;-14.96;62.55;99096.88;5039006;28;20514;-74
2023/02/19 01:28:50;;;;;;;30.60;12.50;;;;;;;-14.94;62.41;99090.03;5055590;28;20044;-74
2023/02/19 01:31:19;;;;;;;27.30;11.52;;;;;;;-14.85;62.90;99097.03;5073446;28;20591;-74
2023/02/19 01:33:46;;;;;;;24.83;12.35;;;;;;;-14.80;62.53;99086.00;5039081;28;20744;-74
2023/02/19 01:36:13;;;;;;;25.88;12.32;;;;;;;-14.80;62.37;99092.84;5038735;28;20037;-75
2023/02/19 01:38:39;;;;;;;25.17;11.88;;;;;;;-14.90;62.22;99090.97;5038846;28;20040;-75
2023/02/19 01:41:08;;;;;;;26.27;10.82;;;;;;;-14.89;62.31;99092.69;5038807;28;20463;-74
2023/02/19 01:43:56;;;;;;;30.10;11.98;;;;;;;-14.94;62.39;99090.03;5038455;28;20504;-75
2023/02/19 01:46:34;;;;;;;26.88;11.45;;;;;;;-15.08;62.61;99091.50;5038627;28;20044;-74
2023/02/19 01:49:14;;;;;;;33.40;11.63;;;;;;;-15.03;62.90;99093.31;5039331;28;20193;-75
2023/02/19 01:51:54;;;;;;;29.30;11.38;;;;;;;-14.99;62.70;99091.69;5073656;28;20062;-76
2023/02/19 01:54:24;;;;;;;26.40;10.70;;;;;;;-15.02;62.68;99089.91;5038808;28;20045;-75
2023/02/19 01:56:50;;;;;;;;;;;;;;;-14.98;62.21;99091.69;5055672;28;20130;-74
2023/02/19 01:59:17;;;;;;;16.50;7.32;;;;;;;-15.00;62.39;99101.06;5038733;28;19924;-75
2023/02/19 02:01:43;;;;;;;20.80;9.77;;;;;;;-14.94;62.91;99101.16;5055156;28;20072;-74
2023/02/19 02:04:10;;;;;;;23.83;10.77;;;;;;;-14.98;62.79;99096.81;5038418;28;20072;-75
2023/02/19 02:06:53;;;;;;;17.35;9.82;;;;;;;-15.03;62.73;99106.13;5055419;28;20036;-74
2023/02/19 02:12:08;;;;;;;15.13;7.40;;;;;;;-15.26;62.97;99099.75;5055126;28;20044;-74
2023/02/19 02:14:37;;;;;;;16.52;7.22;;;;;;;-15.40;63.79;99103.72;5038365;28;20046;-74
2023/02/19 02:17:31;;;;;;;19.15;10.70;;;;;;;-15.19;63.23;99094.75;5044206;28;20539;-74
2023/02/19 02:20:03;;;;;;;17.48;9.13;;;;;;;-15.15;63.17;99099.91;5084040;28;20055;-74
2023/02/19 02:22:49;;;;;;;25.48;10.40;;;;;;;-15.03;63.33;99093.31;5058218;28;20052;-73
2023/02/19 02:25:31;;;;;;;25.30;10.35;;;;;;;-14.91;63.39;99094.38;5031377;28;20151;-75
2023/02/19 02:28:06;;;;;;;26.95;11.15;;;;;;;-14.77;62.94;99092.91;5041617;28;20048;-76
2023/02/19 02:30:41;;;;;;;34.55;11.18;;;;;;;-14.72;62.62;99093.84;5058305;28;20491;-74
2023/02/19 02:33:25;;;;;;;22.45;8.90;;;;;;;-14.74;62.16;99088.69;5061698;28;20056;-75
2023/02/19 02:35:54;;;;;;;25.73;10.75;;;;;;;-14.81;62.25;99089.44;5021815;28;20408;-73
2023/02/19 02:38:25;;;;;;;28.30;10.70;;;;;;;-14.76;62.53;99090.34;5054829;28;20052;-74
2023/02/19 02:40:53;;;;;;;22.45;9.45;;;;;;;-14.74;62.16;99087.81;5067398;28;20289;-74
2023/02/19 02:43:19;;;;;;;29.60;11.70;;;;;;;-14.76;62.06;99079.22;5058621;28;20067;-74
2023/02/19 02:45:45;;;;;;;23.73;11.93;;;;;;;-14.88;62.01;99089.31;5074946;28;20087;-75
2023/02/19 02:48:44;;;;;;;18.60;9.65;;;;;;;-15.02;62.19;99091.63;5075098;28;20051;-75
2023/02/19 02:51:16;;;;;;;23.63;9.93;;;;;;;-15.01;61.91;99065.13;5041635;28;20097;-74
2023/02/19 02:57:14;;;;;;;22.40;9.57;;;;;;;-15.02;61.75;99071.97;5092398;28;20055;-75
2023/02/19 02:59:48;;;;;;;15.20;8.02;;;;;;;-15.05;62.10;99076.16;5058362;28;20036;-75
2023/02/19 03:02:24;;;;;;;26.80;10.23;;;;;;;-15.11;61.81;99071.81;5041617;28;20059;-74
2023/02/19 03:07:55;;;;;;;18.52;7.68;;;;;;;-15.34;62.12;99073.06;5058320;28;20094;-74
2023/02/19 03:10:50;;;;;;;17.08;8.88;;;;;;;-15.40;62.62;99084.09;5041782;28;20063;-75
2023/02/19 03:19:19;;;;;;;27.65;9.48;;;;;;;-15.40;62.58;99088.34;5037885;28;20045;-77
2023/02/19 03:21:53;;;;;;;25.40;9.20;;;;;;;-15.35;63.10;99089.28;5071145;28;20043;-75
2023/02/19 03:27:15;;;;;;;25.50;10.38;;;;;;;-15.55;63.04;99100.03;5054749;28;20113;-75
2023/02/19 03:29:49;;;;;;;39.85;13.68;;;;;;;-15.55;62.88;99097.47;5054410;28;20054;-76
2023/02/19 03:32:26;;;;;;;37.92;16.20;;;;;;;-15.58;63.09;99097.41;5055696;28;20048;-76
2023/02/19 03:35:08;;;;;;;30.60;15.57;;;;;;;-15.65;63.26;99077.66;5042320;28;20059;-74
2023/02/19 03:37:45;;;;;;;34.00;12.40;;;;;;;-15.39;62.95;99108.88;5041592;28;20557;-74
2023/02/19 03:40:12;;;;;;;35.35;14.68;;;;;;;-15.40;62.92;99109.72;5041414;28;20041;-75
2023/02/19 03:42:48;;;;;;;39.03;15.32;;;;;;;-15.39;62.49;99115.69;5057926;28;20048;-79
2023/02/19 03:45:36;;;;;;;30.35;12.93;;;;;;;-15.39;63.15;99115.69;5041477;28;20059;-76
2023/02/19 03:48:28;;;;;;;34.38;12.80;;;;;;;-15.39;62.67;99114.00;5041409;28;20071;-75
2023/02/19 03:51:09;;;;;;;26.52;11.65;;;;;;;-15.32;62.18;99108.16;5041014;28;20080;-77
2023/02/19 03:53:53;;;;;;;28.98;11.88;;;;;;;-15.31;62.17;99109.03;5057809;28;20048;-77
2023/02/19 03:56:35;;;;;;;32.38;13.73;;;;;;;-15.31;61.95;99111.59;5024631;28;20044;-76
2023/02/19 03:59:12;;;;;;;34.03;12.82;;;;;;;-15.28;61.85;99121.91;5024634;28;20080;-77
2023/02/19 04:01:43;;;;;;;30.77;12.98;;;;;;;-15.20;61.74;99118.63;5040852;28;20051;-76
2023/02/19 04:04:34;;;;;;;38.65;13.70;;;;;;;-15.07;61.59;99127.44;5057726;28;20040;-75
2023/02/19 04:07:00;;;;;;;25.45;12.40;;;;;;;-15.01;61.35;99117.28;5024364;28;20170;-72
2023/02/19 04:09:37;;;;;;;30.30;10.98;;;;;;;-15.06;60.55;99121.47;5040600;28;20051;-74
2023/02/19 04:12:09;;;;;;;43.83;11.48;;;;;;;-15.12;60.88;99123.91;5040616;28;20094;-77
2023/02/19 04:14:45;;;;;;;42.85;13.93;;;;;;;-15.13;60.34;99124.75;5040992;28;20076;-74
2023/02/19 04:17:28;;;;;;;26.45;11.70;;;;;;;-15.15;60.63;99129.00;5057490;28;20461;-84
2023/02/19 04:19:56;;;;;;;38.35;14.52;;;;;;;-15.06;60.45;99136.00;5056946;28;20053;-76
2023/02/19 04:22:23;;;;;;;28.27;15.25;;;;;;;-15.00;59.66;99126.72;5057267;28;20377;-80
2023/02/19 04:24:52;;;;;;;34.38;14.02;;;;;;;-14.98;59.49;99119.91;5023479;28;20056;-75
2023/02/19 04:27:18;;;;;;;39.80;17.50;;;;;;;-14.94;59.37;99121.69;5040973;28;20051;-77
2023/02/19 04:29:44;;;;;;;42.50;16.02;;;;;;;-14.94;59.16;99115.69;5039408;28;20048;-77
2023/02/19 04:32:11;;;;;;;72.80;19.73;;;;;;;-14.82;59.18;99121.03;5040062;28;20048;-75
2023/02/19 04:34:37;;;;;;;39.85;16.83;;;;;;;-14.71;58.83;99118.66;5056135;28;20047;-76
2023/02/19 04:37:03;;;;;;;47.00;16.27;;;;;;;-14.65;58.91;99123.03;5055810;28;20037;-76
2023/02/19 04:39:29;;;;;;;50.75;18.17;;;;;;;-14.60;58.75;99122.25;5039726;28;20167;-80
2023/02/19 04:41:55;;;;;;;36.33;18.05;;;;;;;-14.41;58.61;99119.94;5023096;28;20513;-78
2023/02/19 04:44:21;;;;;;;45.50;20.23;;;;;;;-14.37;58.49;99099.47;5023106;28;20464;-77
2023/02/19 04:46:48;;;;;;;29.95;13.10;;;;;;;-14.30;57.54;99123.56;5056292;28;20090;-79
2023/02/19 04:49:14;;;;;;;51.60;21.27;;;;;;;-14.46;57.86;99123.31;5023011;28;20041;-82
2023/02/19 04:51:40;;;;;;;39.33;16.70;;;;;;;-14.41;58.22;99114.81;5024135;28;20113;-78
2023/02/19 04:54:06;;;;;;;47.47;17.10;;;;;;;-14.26;58.76;99109.91;5073855;28;20141;-80
2023/02/19 04:56:32;;;;;;;46.38;17.70;;;;;;;-14.12;58.70;99103.28;5055707;28;20427;-77
2023/02/19 04:58:57;;;;;;;53.65;20.65;;;;;;;-13.99;58.26;99112.91;5038997;28;20415;-76
2023/02/19 05:01:24;;;;;;;52.50;16.25;;;;;;;-14.00;57.97;99115.44;5055764;28;20045;-77
2023/02/19 05:03:51;;;;;;;52.38;17.33;;;;;;;-13.96;57.62;99102.66;5038924;28;20554;-77
2023/02/19 05:06:17;;;;;;;42.17;18.63;;;;;;;-13.94;57.76;99104.41;5039055;28;20044;-77
2023/02/19 05:08:43;;;;;;;46.65;19.00;;;;;;;-13.71;58.24;99113.25;5039012;28;20087;-76
2023/02/19 05:11:11;;;;;;;59.30;20.27;;;;;;;-13.58;57.61;99104.84;5039046;28;20063;-78
2023/02/19 05:13:37;;;;;;;45.85;19.48;;;;;;;-13.42;57.62;99120.47;5039043;28;20044;-77
2023/02/19 05:16:06;;;;;;;44.08;19.38;;;;;;;-13.33;57.15;99110.28;5039225;28;20154;-76
2023/02/19 05:18:33;;;;;;;43.40;18.15;;;;;;;-13.33;57.24;99107.72;5022590;28;20106;-76
2023/02/19 05:21:00;;;;;;;51.15;20.98;;;;;;;-13.25;57.30;99099.25;5055112;28;20507;-78
2023/02/19 05:23:26;;;;;;;66.63;23.55;;;;;;;-13.02;56.90;99109.75;5054757;28;20048;-79
2023/02/19 05:25:52;;;;;;;48.00;19.65;;;;;;;-12.84;56.96;99106.50;5038691;28;20063;-75
2023/02/19 05:28:19;;;;;;;53.30;18.52;;;;;;;-12.72;56.64;99098.00;5073057;28;20041;-77
2023/02/19 05:30:52;;;;;;;51.05;20.08;;;;;;;-12.53;56.70;99101.59;5055031;28;20037;-74
2023/02/19 05:33:19;;;;;;;50.85;20.08;;;;;;;-12.76;56.00;99085.97;5022113;28;20044;-76
2023/02/19 05:35:47;;;;;;;47.72;20.55;;;;;;;-12.54;56.58;99095.59;5022327;28;20043;-76
2023/02/19 05:38:14;;;;;;;50.50;20.02;;;;;;;-12.51;56.50;99084.47;5038144;28;20044;-74
2023/02/19 05:40:40;;;;;;;41.45;18.20;;;;;;;-12.60;56.55;99086.94;5072757;28;20518;-78
2023/02/19 05:43:07;;;;;;;46.47;18.92;;;;;;;-12.55;56.79;99083.59;5022084;28;20511;-75
2023/02/19 05:45:33;;;;;;;46.00;17.25;;;;;;;-12.57;56.26;99087.84;5072797;28;20051;-77
2023/02/19 05:47:59;;;;;;;57.10;18.40;;;;;;;-12.62;56.63;99071.50;5038555;28;20049;-78
2023/02/19 05:50:25;;;;;;;44.03;17.55;;;;;;;-12.51;56.44;99069.88;5038429;28;20059;-78
2023/02/19 05:52:51;;;;;;;35.92;16.95;;;;;;;-12.31;56.99;99082.91;5071945;28;20411;-76
2023/02/19 05:55:19;;;;;;;42.40;17.58;;;;;;;-12.15;56.75;99073.56;5021694;28;20082;-78
2023/02/19 05:57:46;;;;;;;42.47;18.40;;;;;;;-12.03;56.06;99068.50;5055478;28;20076;-82
2023/02/19 06:00:16;;;;;;;36.90;16.02;;;;;;;-11.97;55.86;99077.09;5056049;28;20036;-83
2023/02/19 06:02:43;;;;;;;40.80;16.05;;;;;;;-11.78;55.87;99084.03;5038072;28;20127;-77
2023/02/19 06:05:09;;;;;;;40.03;16.98;;;;;;;-11.71;55.86;99079.78;5054825;28;20043;-75
2023/02/19 06:07:38;;;;;;;38.05;16.73;;;;;;;-11.79;55.81;99072.00;5021383;28;20080;-80
2023/02/19 06:10:06;;;;;;;39.13;16.25;;;;;;;-11.63;55.86;99072.94;5055102;28;20040;-77
2023/02/19 06:12:33;;;;;;;36.85;15.98;;;;;;;-11.52;55.35;99066.97;5054948;28;20056;-78
2023/02/19 06:14:59;;;;;;;38.42;16.55;;;;;;;-11.47;55.11;99064.41;5054622;28;20060;-77
2023/02/19 06:17:27;;;;;;;36.63;15.88;;;;;;;-11.56;54.94;99052.34;5054710;28;20123;-80
2023/02/19 06:19:53;;;;;;;53.95;17.42;;;;;;;-11.44;55.47;99053.25;5074485;28;20051;-78
2023/02/19 06:22:19;;;;;;;42.78;16.52;;;;;;;-11.34;55.24;99058.44;5053106;28;20040;-80
2023/02/19 06:24:46;;;;;;;31.42;15.32;;;;;;;-11.17;55.53;99058.47;5035495;28;20052;-78
2023/02/19 06:27:11;;;;;;;31.40;14.63;;;;;;;-11.21;54.58;99067.06;5054261;28;20487;-75
2023/02/19 06:29:37;;;;;;;28.33;14.80;;;;;;;-11.34;54.17;99053.28;5072025;28;20140;-76
2023/02/19 06:32:04;;;;;;;39.20;16.30;;;;;;;-11.11;54.59;99049.88;5072581;28;20523;-78
2023/02/19 06:34:30;;;;;;;32.55;13.75;;;;;;;-11.05;54.25;99048.19;5021294;28;20507;-78
2023/02/19 06:36:57;;;;;;;29.60;13.43;;;;;;;-10.90;54.22;99052.50;5021095;28;20046;-82
2023/02/19 06:39:23;;;;;;;31.40;14.88;;;;;;;-10.67;54.49;99043.91;5039027;28;20047;-77
2023/02/19 06:41:49;;;;;;;30.23;14.18;;;;;;;-10.41;54.34;99041.31;5072231;28;20514;-79
2023/02/19 06:44:16;;;;;;;29.70;14.02;;;;;;;-10.35;54.30;99036.13;5054524;28;20135;-79
2023/02/19 06:46:42;;;;;;;28.38;13.57;;;;;;;-10.45;53.59;99031.88;5054198;28;20140;-79
2023/02/19 06:49:08;;;;;;;33.33;15.75;;;;;;;-10.17;53.63;99024.88;5054319;28;20040;-81
2023/02/19 06:51:34;;;;;;;40.17;14.27;;;;;;;-10.10;53.75;99027.44;5037261;28;20048;-82
2023/02/19 06:54:01;;;;;;;28.05;12.13;;;;;;;-9.92;53.18;99025.69;5021057;28;20048;-80
2023/02/19 06:56:30;;;;;;;30.13;13.70;;;;;;;-9.65;53.31;99024.72;5071817;28;20048;-80
2023/02/19 06:58:58;;;;;;;33.42;13.73;;;;;;;-9.51;52.72;99011.69;5054057;28;20044;-81
2023/02/19 07:01:25;;;;;;;26.92;13.90;;;;;;;-9.40;51.32;99020.28;5056916;28;20184;-81
2023/02/19 07:03:54;;;;;;;36.65;16.33;;;;;;;-9.45;51.94;99022.03;5052288;28;20135;-84
2023/02/19 07:06:38;;;;;;;41.70;14.80;;;;;;;-9.36;51.83;99022.84;5059502;28;20565;-85
2023/02/19 07:09:08;;;;;;;36.88;15.18;;;;;;;-9.13;51.67;99025.31;5076667;28;20085;-83
2023/02/19 07:11:37;;;;;;;33.13;15.13;;;;;;;-9.17;51.22;99013.25;5058320;28;20044;-83
2023/02/19 07:14:08;;;;;;;40.30;16.20;;;;;;;-9.17;50.83;99010.66;5056666;28;20139;-84
2023/02/19 07:16:35;;;;;;;35.22;16.98;;;;;;;-9.10;50.47;99014.94;5039646;28;20036;-76
2023/02/19 07:19:02;;;;;;;39.38;16.23;;;;;;;-9.07;50.40;99008.88;5046932;28;20396;-78
2023/02/19 07:21:28;;;;;;;39.40;16.30;;;;;;;-8.93;50.92;98995.81;5059410;28;20047;-76
2023/02/19 07:23:55;;;;;;;44.08;15.55;;;;;;;-8.76;50.90;98998.28;5059115;28;20060;-78
2023/02/19 07:26:21;;;;;;;35.65;17.02;;;;;;;-8.57;50.37;98998.13;5059491;28;20050;-77
2023/02/19 07:28:51;;;;;;;25.98;13.75;;;;;;;-8.48;50.51;98993.72;5043057;28;20036;-77
2023/02/19 07:31:20;;;;;;;66.97;20.90;;;;;;;-8.54;50.93;98993.78;5042555;28;20127;-77
2023/02/19 07:33:47;;;;;;;36.00;15.95;;;;;;;-8.35;50.91;98979.72;5055200;28;20044;-77
2023/02/19 07:36:14;;;;;;;27.25;13.68;;;;;;;-8.02;49.74;98998.41;5073460;28;20407;-77
2023/02/19 07:38:41;;;;;;;41.25;15.15;;;;;;;-7.94;49.67;98981.03;5039353;28;20468;-78
2023/02/19 07:41:08;;;;;;;31.25;13.52;;;;;;;-7.73;49.16;98985.97;5039427;28;20084;-79
2023/02/19 07:43:37;;;;;;;30.23;13.90;;;;;;;-7.72;48.20;98981.63;5039066;28;20047;-79
2023/02/19 07:46:06;;;;;;;26.92;13.07;;;;;;;-7.66;48.44;98972.03;5038980;28;20040;-77
2023/02/19 07:48:35;;;;;;;29.05;14.05;;;;;;;-7.62;48.65;98984.09;5073731;28;20044;-78
2023/02/19 07:51:03;;;;;;;30.42;13.75;;;;;;;-7.75;48.29;98971.28;5026879;28;20064;-77
2023/02/19 07:53:31;;;;;;;22.85;12.13;;;;;;;-7.86;48.62;98976.59;5053310;28;20120;-77
2023/02/19 07:56:05;;;;;;;26.00;10.68;;;;;;;-7.94;48.30;98971.50;5049788;28;20032;-78
2023/02/19 07:58:33;;;;;;;32.10;13.40;;;;;;;-7.87;48.87;98973.16;5055608;28;20051;-78
2023/02/19 08:01:15;;;;;;;26.23;12.60;;;;;;;-7.46;48.26;98968.31;5017367;28;20080;-77
2023/02/19 08:03:43;;;;;;;29.15;12.10;;;;;;;-7.27;48.46;98967.19;5023605;28;20040;-77
2023/02/19 08:06:10;;;;;;;22.85;11.52;;;;;;;-6.93;47.80;98975.31;5053764;28;20045;-78
2023/02/19 08:08:38;;;;;;;36.75;13.50;;;;;;;-6.92;47.37;98965.78;5021050;28;20051;-77
2023/02/19 08:13:52;;;;;;;29.58;13.25;;;;;;;-6.97;47.12;98959.81;5053653;28;20055;-77
2023/02/19 08:16:24;;;;;;;30.38;12.50;;;;;;;-6.90;46.56;98958.84;5053775;28;20052;-79
2023/02/19 08:18:50;;;;;;;32.88;14.25;;;;;;;-6.84;46.59;98948.34;5053151;28;20596;-77
2023/02/19 08:21:17;;;;;;;33.60;14.60;;;;;;;-6.88;46.66;98944.94;5053843;28;20052;-77
2023/02/19 08:23:45;;;;;;;32.40;14.45;;;;;;;-6.45;46.80;98943.34;5053380;28;20059;-77
2023/02/19 08:26:11;;;;;;;25.35;12.93;;;;;;;-6.36;46.95;98945.75;5053223;28;20063;-78
2023/02/19 08:28:38;;;;;;;32.33;13.40;;;;;;;-6.07;46.59;98945.22;5036563;28;20337;-78
2023/02/19 08:31:07;;;;;;;31.17;13.82;;;;;;;-5.97;46.23;98932.91;5018245;28;20558;-81
2023/02/19 08:33:36;;;;;;;32.83;13.27;;;;;;;-5.85;45.29;98932.63;5051732;28;20044;-80
2023/02/19 08:36:05;;;;;;;38.15;13.98;;;;;;;-6.38;45.85;98925.00;5052821;28;20075;-79
2023/02/19 08:38:34;;;;;;;26.95;12.88;;;;;;;-6.12;46.52;98934.91;5035925;28;20049;-76
2023/02/19 08:41:08;;;;;;;30.10;13.65;;;;;;;-5.58;45.88;98928.56;5018453;28;20072;-79
2023/02/19 08:43:38;;;;;;;31.42;13.45;;;;;;;-5.33;45.57;98926.28;5051727;28;20052;-80
2023/02/19 08:46:05;;;;;;;32.70;11.70;;;;;;;-5.89;44.56;98915.34;5034715;28;20041;-78
2023/02/19 08:48:32;;;;;;;31.17;13.20;;;;;;;-5.50;45.41;98925.78;5019334;28;20041;-80
2023/02/19 08:51:02;;;;;;;27.42;13.15;;;;;;;-5.24;44.32;98927.81;5037439;28;20044;-78
2023/02/19 08:53:31;;;;;;;30.50;11.43;;;;;;;-5.39;44.17;98927.25;5054962;28;20049;-78
2023/02/19 08:55:57;;;;;;;30.70;13.40;;;;;;;-5.31;45.03;98919.28;5060707;28;20040;-78
2023/02/19 08:58:26;;;;;;;26.23;13.23;;;;;;;-5.03;45.01;98919.50;5081069;23;20043;-76
2023/02/19 09:00:52;;;;;;;28.13;12.52;;;;;;;-4.82;44.44;98918.13;4984885;28;20038;-76
2023/02/19 09:03:27;;;;;;;23.35;11.57;;;;;;;-4.90;43.51;98930.47;4975335;28;20042;-78
2023/02/19 09:05:55;;;;;;;25.98;13.45;;;;;;;-4.75;44.77;98914.47;4989296;28;20039;-79
2023/02/19 09:08:20;;;;;;;35.10;14.30;;;;;;;-4.32;44.37;98915.13;4972683;28;20054;-78
2023/02/19 09:11:03;;;;;;;25.30;13.50;;;;;;;-4.58;42.39;98910.59;4988119;28;20415;-78
2023/02/19 09:13:31;;;;;;;35.78;15.05;;;;;;;-4.97;43.62;98910.66;4973594;28;20054;-79
2023/02/19 09:15:57;;;;;;;33.60;14.05;;;;;;;-4.85;44.07;98907.78;4988155;28;20039;-79
2023/02/19 09:18:24;;;;;;;31.83;12.95;;;;;;;-4.90;43.42;98917.44;5004358;28;20050;-77
2023/02/19 09:20:50;;;;;;;28.30;13.93;;;;;;;-5.03;43.98;98910.84;4988069;28;20398;-78
2023/02/19 09:23:18;;;;;;;43.53;17.33;;;;;;;-5.15;43.22;98905.03;5004168;28;20074;-78
2023/02/19 09:25:45;;;;;;;40.67;17.20;;;;;;;-5.40;43.19;98896.06;4959866;28;20463;-78
2023/02/19 09:28:12;;;;;;;41.45;18.25;;;;;;;-5.46;43.68;98904.84;4984814;28;20039;-77
2023/02/19 09:30:39;;;;;;;36.60;17.63;;;;;;;-5.09;44.52;98890.13;4951690;28;20074;-78
2023/02/19 09:33:10;;;;;;;35.95;16.48;;;;;;;-4.57;43.78;98887.06;4976635;28;20049;-78
2023/02/19 09:35:39;;;;;;;36.78;16.33;;;;;;;-4.31;43.74;98883.75;4970417;28;20586;-77
2023/02/19 09:38:05;;;;;;;45.45;16.13;;;;;;;-4.00;43.50;98888.13;4970237;28;20534;-76
2023/02/19 09:40:34;;;;;;;41.10;14.65;;;;;;;-3.91;43.11;98887.88;4957638;28;20074;-78
2023/02/19 09:43:01;;;;;;;30.37;13.80;;;;;;;-3.75;42.80;98877.81;4953123;28;20518;-79
2023/02/19 09:45:27;;;;;;;37.30;14.32;;;;;;;-3.48;42.78;98876.97;4939467;28;20388;-76
2023/02/19 09:47:56;;;;;;;32.08;14.95;;;;;;;-3.24;42.43;98880.59;4974462;28;20043;-83
2023/02/19 09:50:27;;;;;;;;;;;;;;;-3.05;42.10;98877.38;4959796;28;20694;-82
2023/02/19 09:52:57;;;;;;;26.58;12.30;;;;;;;-3.01;41.40;98879.88;4974209;28;19925;-82
2023/02/19 09:55:36;;;;;;;30.90;13.93;;;;;;;-2.95;41.43;98881.41;4940766;28;20057;-85
2023/02/19 09:58:16;;;;;;;26.17;12.57;;;;;;;-3.09;40.99;98868.78;4971653;28;20058;-82
2023/02/19 10:00:46;;;;;;;25.77;12.93;;;;;;;-3.13;41.02;98867.16;4939328;28;20070;-82
2023/02/19 10:03:22;;;;;;;28.25;14.68;;;;;;;-2.87;42.04;98865.47;4971789;28;20090;-82
2023/02/19 10:05:48;;;;;;;27.67;13.57;;;;;;;-2.66;42.38;98861.28;4955514;28;20423;-80
2023/02/19 10:08:19;;;;;;;29.40;14.32;;;;;;;-2.65;41.91;98858.59;4955699;28;20070;-78
2023/02/19 10:10:45;;;;;;;37.33;19.00;;;;;;;-2.73;40.85;98856.25;4928147;29;20138;-77
2023/02/19 10:13:20;;;;;;;35.63;19.35;;;;;;;-3.11;40.22;98854.06;4952440;28;20155;-80
2023/02/19 10:15:47;;;;;;;47.05;22.88;;;;;;;-2.97;40.51;98854.44;4951988;29;20055;-80
2023/02/19 10:18:19;;;;;;;49.60;21.08;;;;;;;-3.14;39.55;98849.78;4952777;29;20051;-81
2023/02/19 10:20:47;;;;;;;52.15;22.08;;;;;;;-3.75;39.96;98847.34;4969189;28;20051;-81
2023/02/19 10:23:15;;;;;;;53.00;22.20;;;;;;;-3.43;41.27;98848.09;4954755;28;20039;-80
2023/02/19 10:25:45;;;;;;;44.45;23.55;;;;;;;-3.64;39.83;98848.78;4969502;28;20415;-80
2023/02/19 10:28:15;;;;;;;51.10;23.15;;;;;;;-3.69;39.94;98841.91;4969634;28;20639;-79
2023/02/19 10:30:42;;;;;;;51.10;23.38;;;;;;;-3.72;40.73;98838.56;4952689;28;20474;-78
2023/02/19 10:33:14;;;;;;;52.33;23.35;;;;;;;-3.77;40.48;98841.28;4954306;28;20506;-82
2023/02/19 10:36:23;;;;;;;53.17;22.85;;;;;;;-3.37;40.09;98839.22;4969660;28;20047;-79
2023/02/19 10:38:49;;;;;;;49.85;20.92;;;;;;;-3.73;39.53;98834.22;4946657;29;20079;-81
2023/02/19 10:41:21;;;;;;;51.63;21.92;;;;;;;-4.03;40.00;98822.94;4970805;28;20080;-81
2023/02/19 10:43:59;;;;;;;62.65;21.08;;;;;;;-4.78;39.96;98836.31;4957159;28;20040;-83
2023/02/19 10:46:30;;;;;;;50.03;21.75;;;;;;;-4.98;41.50;98817.75;4975306;28;20452;-78
2023/02/19 10:49:18;;;;;;;67.32;23.80;;;;;;;-5.10;41.36;98825.88;4956819;28;20047;-80
2023/02/19 10:51:46;;;;;;;60.28;23.98;;;;;;;-5.03;41.08;98827.44;4973043;28;20046;-80
2023/02/19 10:54:18;;;;;;;66.93;26.40;;;;;;;-5.17;41.24;98813.00;4958292;28;20130;-81
2023/02/19 10:56:44;;;;;;;55.65;23.90;;;;;;;-5.22;41.20;98819.22;4973198;28;20159;-81
2023/02/19 10:59:23;;;;;;;67.88;28.30;;;;;;;-5.19;41.10;98822.63;4969771;28;20094;-82
2023/02/19 11:01:56;;;;;;;59.28;25.10;;;;;;;-4.79;41.38;98813.75;4972152;28;20055;-80
2023/02/19 11:04:23;;;;;;;46.33;22.08;;;;;;;-5.14;40.98;98817.28;4972885;28;20051;-82
2023/02/19 11:06:49;;;;;;;53.70;23.58;;;;;;;-5.43;40.94;98825.81;4972551;28;20045;-79
2023/02/19 11:09:27;;;;;;;55.63;24.13;;;;;;;-5.73;41.38;98828.22;4959309;28;20055;-80
2023/02/19 11:11:58;;;;;;;57.17;26.03;;;;;;;-5.45;41.93;98832.81;4977532;28;20043;-81
2023/02/19 11:14:26;;;;;;;45.38;20.92;;;;;;;-5.40;42.15;98825.72;4960823;29;20047;-79
2023/02/19 11:16:55;;;;;;;53.60;22.70;;;;;;;-5.22;41.74;98816.63;4990877;28;20023;-79
2023/02/19 11:19:35;;;;;;;49.38;19.35;;;;;;;-5.30;41.57;98814.22;4984987;28;20046;-78
2023/02/19 11:22:17;;;;;;;53.15;20.90;;;;;;;-5.47;41.63;98830.22;4972829;28;20081;-78
2023/02/19 11:24:48;;;;;;;43.70;21.98;;;;;;;-5.40;41.66;98825.72;4972541;28;20047;-78
2023/02/19 11:27:20;;;;;;;44.55;21.55;;;;;;;-5.52;41.89;98821.69;4973165;28;20220;-76
2023/02/19 11:29:46;;;;;;;54.70;24.42;;;;;;;-5.61;41.87;98827.09;4991831;28;20130;-76
2023/02/19 11:32:29;;;;;;;49.33;20.92;;;;;;;-5.52;41.96;98819.06;4977111;28;20038;-77
2023/02/19 11:35:24;;;;;;;55.35;25.65;;;;;;;-5.25;41.79;98820.16;4976987;28;20046;-78
2023/02/19 11:37:56;;;;;;;55.25;25.90;;;;;;;-5.25;41.89;98809.72;4933587;28;20050;-77
2023/02/19 11:40:39;;;;;;;59.30;26.95;;;;;;;-4.95;41.68;98810.69;4973071;28;20093;-78
2023/02/19 11:43:26;;;;;;;57.58;27.90;;;;;;;-4.74;41.78;98806.69;4973638;28;20058;-77
2023/02/19 11:46:14;;;;;;;61.67;23.05;;;;;;;-5.10;41.54;98807.63;4990079;28;20139;-76
2023/02/19 11:48:46;;;;;;;60.80;27.23;;;;;;;-5.14;42.20;98812.91;4990991;28;20415;-78